sensor_id;sensor_type;location;lat;lon;timestamp;P1;durP1;ratioP1;P2;durP2;ratioP2
29848;SDS011;16728;50.832;5.590;2023-05-23T00:02:08;31.15;;;22.23;;
29848;SDS011;16728;50.832;5.590;2023-05-23T00:05:10;28.05;;;21.05;;
29848;SDS011;16728;50.832;5.590;2023-05-23T00:08:12;26.60;;;20.13;;
29848;SDS011;16728;50.832;5.590;2023-05-23T00:11:14;34.10;;;21.98;;
29848;SDS011;16728;50.832;5.590;2023-05-23T00:14:17;28.73;;;21.73;;
29848;SDS011;16728;50.832;5.590;2023-05-23T00:17:19;31.77;;;22.50;;
29848;SDS011;16728;50.832;5.590;2023-05-23T00:20:28;31.65;;;21.42;;
29848;SDS011;16728;50.832;5.590;2023-05-23T00:23:31;26.95;;;21.77;;
29848;SDS011;16728;50.832;5.590;2023-05-23T00:26:36;31.88;;;24.00;;
29848;SDS011;16728;50.832;5.590;2023-05-23T00:29:38;30.33;;;23.07;;
29848;SDS011;16728;50.832;5.590;2023-05-23T00:32:43;36.75;;;24.15;;
29848;SDS011;16728;50.832;5.590;2023-05-23T00:35:46;29.80;;;22.92;;
29848;SDS011;16728;50.832;5.590;2023-05-23T00:38:49;34.28;;;24.45;;
29848;SDS011;16728;50.832;5.590;2023-05-23T00:41:51;35.10;;;25.48;;
29848;SDS011;16728;50.832;5.590;2023-05-23T00:44:57;39.13;;;26.55;;
29848;SDS011;16728;50.832;5.590;2023-05-23T00:47:58;33.30;;;26.38;;
29848;SDS011;16728;50.832;5.590;2023-05-23T00:51:02;36.30;;;25.15;;
29848;SDS011;16728;50.832;5.590;2023-05-23T00:54:05;35.22;;;25.05;;
29848;SDS011;16728;50.832;5.590;2023-05-23T00:57:07;37.72;;;26.40;;
29848;SDS011;16728;50.832;5.590;2023-05-23T01:00:10;32.53;;;26.30;;
29848;SDS011;16728;50.832;5.590;2023-05-23T01:03:14;33.45;;;25.50;;
29848;SDS011;16728;50.832;5.590;2023-05-23T01:06:19;37.70;;;28.13;;
29848;SDS011;16728;50.832;5.590;2023-05-23T01:09:24;36.85;;;26.80;;
29848;SDS011;16728;50.832;5.590;2023-05-23T01:16:12;38.88;;;27.98;;
29848;SDS011;16728;50.832;5.590;2023-05-23T01:19:33;39.42;;;28.38;;
29848;SDS011;16728;50.832;5.590;2023-05-23T01:29:08;43.08;;;29.52;;
29848;SDS011;16728;50.832;5.590;2023-05-23T01:32:15;36.05;;;27.85;;
29848;SDS011;16728;50.832;5.590;2023-05-23T01:35:21;37.00;;;27.35;;
29848;SDS011;16728;50.832;5.590;2023-05-23T01:38:29;35.63;;;27.50;;
29848;SDS011;16728;50.832;5.590;2023-05-23T01:41:30;36.35;;;27.52;;
29848;SDS011;16728;50.832;5.590;2023-05-23T01:44:33;37.33;;;26.02;;
29848;SDS011;16728;50.832;5.590;2023-05-23T01:47:35;34.67;;;26.48;;
29848;SDS011;16728;50.832;5.590;2023-05-23T01:50:39;33.38;;;25.13;;
29848;SDS011;16728;50.832;5.590;2023-05-23T01:53:51;33.03;;;23.83;;
29848;SDS011;16728;50.832;5.590;2023-05-23T01:56:55;31.83;;;23.02;;
29848;SDS011;16728;50.832;5.590;2023-05-23T02:00:05;31.80;;;22.67;;
29848;SDS011;16728;50.832;5.590;2023-05-23T02:03:08;32.13;;;22.88;;
29848;SDS011;16728;50.832;5.590;2023-05-23T02:06:18;31.52;;;21.30;;
29848;SDS011;16728;50.832;5.590;2023-05-23T02:09:20;24.70;;;20.38;;
29848;SDS011;16728;50.832;5.590;2023-05-23T02:12:22;27.67;;;19.75;;
29848;SDS011;16728;50.832;5.590;2023-05-23T02:15:24;26.13;;;19.58;;
29848;SDS011;16728;50.832;5.590;2023-05-23T02:18:26;24.98;;;18.15;;
29848;SDS011;16728;50.832;5.590;2023-05-23T02:21:29;23.15;;;17.67;;
29848;SDS011;16728;50.832;5.590;2023-05-23T02:24:35;23.42;;;16.95;;
29848;SDS011;16728;50.832;5.590;2023-05-23T02:27:37;22.13;;;16.77;;
29848;SDS011;16728;50.832;5.590;2023-05-23T02:30:39;22.73;;;16.88;;
29848;SDS011;16728;50.832;5.590;2023-05-23T02:33:43;23.00;;;16.88;;
29848;SDS011;16728;50.832;5.590;2023-05-23T02:36:47;19.85;;;17.05;;
29848;SDS011;16728;50.832;5.590;2023-05-23T02:39:49;20.52;;;17.58;;
29848;SDS011;16728;50.832;5.590;2023-05-23T02:42:51;24.45;;;17.58;;
29848;SDS011;16728;50.832;5.590;2023-05-23T02:45:53;23.35;;;17.48;;
29848;SDS011;16728;50.832;5.590;2023-05-23T02:48:55;26.23;;;18.67;;
29848;SDS011;16728;50.832;5.590;2023-05-23T02:51:57;22.30;;;18.15;;
29848;SDS011;16728;50.832;5.590;2023-05-23T02:55:06;26.20;;;18.80;;
29848;SDS011;16728;50.832;5.590;2023-05-23T02:58:08;26.38;;;19.65;;
29848;SDS011;16728;50.832;5.590;2023-05-23T03:01:12;26.75;;;19.83;;
29848;SDS011;16728;50.832;5.590;2023-05-23T03:04:14;22.95;;;18.63;;
29848;SDS011;16728;50.832;5.590;2023-05-23T03:07:19;25.88;;;19.20;;
29848;SDS011;16728;50.832;5.590;2023-05-23T03:10:28;26.70;;;19.10;;
29848;SDS011;16728;50.832;5.590;2023-05-23T03:13:31;21.40;;;18.63;;
29848;SDS011;16728;50.832;5.590;2023-05-23T03:16:33;24.42;;;18.92;;
29848;SDS011;16728;50.832;5.590;2023-05-23T03:19:38;22.83;;;17.60;;
29848;SDS011;16728;50.832;5.590;2023-05-23T03:22:40;21.52;;;19.23;;
29848;SDS011;16728;50.832;5.590;2023-05-23T03:25:45;24.60;;;19.13;;
29848;SDS011;16728;50.832;5.590;2023-05-23T03:28:47;26.30;;;20.55;;
29848;SDS011;16728;50.832;5.590;2023-05-23T03:31:50;25.42;;;20.05;;
29848;SDS011;16728;50.832;5.590;2023-05-23T03:34:52;28.40;;;20.35;;
29848;SDS011;16728;50.832;5.590;2023-05-23T03:40:57;22.83;;;18.65;;
29848;SDS011;16728;50.832;5.590;2023-05-23T03:44:00;25.73;;;19.33;;
29848;SDS011;16728;50.832;5.590;2023-05-23T03:47:02;23.73;;;18.58;;
29848;SDS011;16728;50.832;5.590;2023-05-23T03:50:05;23.27;;;18.20;;
29848;SDS011;16728;50.832;5.590;2023-05-23T03:53:07;24.10;;;16.67;;
29848;SDS011;16728;50.832;5.590;2023-05-23T03:56:09;20.63;;;15.07;;
29848;SDS011;16728;50.832;5.590;2023-05-23T03:59:11;16.85;;;13.50;;
29848;SDS011;16728;50.832;5.590;2023-05-23T04:02:15;21.33;;;13.57;;
29848;SDS011;16728;50.832;5.590;2023-05-23T04:05:18;19.55;;;13.75;;
29848;SDS011;16728;50.832;5.590;2023-05-23T04:08:19;19.90;;;13.23;;
29848;SDS011;16728;50.832;5.590;2023-05-23T04:11:22;22.73;;;14.35;;
29848;SDS011;16728;50.832;5.590;2023-05-23T04:14:24;21.65;;;14.23;;
29848;SDS011;16728;50.832;5.590;2023-05-23T04:17:26;23.38;;;13.00;;
29848;SDS011;16728;50.832;5.590;2023-05-23T04:20:30;18.52;;;12.25;;
29848;SDS011;16728;50.832;5.590;2023-05-23T04:23:32;25.35;;;11.90;;
29848;SDS011;16728;50.832;5.590;2023-05-23T04:26:34;18.77;;;12.40;;
29848;SDS011;16728;50.832;5.590;2023-05-23T04:29:36;23.27;;;12.32;;
29848;SDS011;16728;50.832;5.590;2023-05-23T04:32:41;20.52;;;12.07;;
29848;SDS011;16728;50.832;5.590;2023-05-23T04:35:44;22.58;;;13.45;;
29848;SDS011;16728;50.832;5.590;2023-05-23T04:38:46;20.02;;;13.65;;
29848;SDS011;16728;50.832;5.590;2023-05-23T04:41:48;22.45;;;13.48;;
29848;SDS011;16728;50.832;5.590;2023-05-23T04:44:51;18.83;;;13.13;;
29848;SDS011;16728;50.832;5.590;2023-05-23T04:47:53;22.13;;;13.43;;
29848;SDS011;16728;50.832;5.590;2023-05-23T04:50:56;22.42;;;13.43;;
29848;SDS011;16728;50.832;5.590;2023-05-23T04:54:02;22.67;;;13.13;;
29848;SDS011;16728;50.832;5.590;2023-05-23T04:57:11;21.83;;;12.90;;
29848;SDS011;16728;50.832;5.590;2023-05-23T05:00:13;22.40;;;13.23;;
29848;SDS011;16728;50.832;5.590;2023-05-23T05:03:20;22.05;;;13.65;;
29848;SDS011;16728;50.832;5.590;2023-05-23T05:06:28;23.88;;;13.40;;
29848;SDS011;16728;50.832;5.590;2023-05-23T05:09:33;20.40;;;12.27;;
29848;SDS011;16728;50.832;5.590;2023-05-23T05:12:35;26.30;;;12.73;;
29848;SDS011;16728;50.832;5.590;2023-05-23T05:15:37;24.30;;;13.30;;
29848;SDS011;16728;50.832;5.590;2023-05-23T05:18:39;22.40;;;12.35;;
29848;SDS011;16728;50.832;5.590;2023-05-23T05:21:42;20.85;;;13.50;;
29848;SDS011;16728;50.832;5.590;2023-05-23T05:24:44;17.20;;;12.05;;
29848;SDS011;16728;50.832;5.590;2023-05-23T05:27:47;16.20;;;11.75;;
29848;SDS011;16728;50.832;5.590;2023-05-23T05:30:49;22.30;;;13.82;;
29848;SDS011;16728;50.832;5.590;2023-05-23T05:33:54;21.85;;;13.93;;
29848;SDS011;16728;50.832;5.590;2023-05-23T05:36:57;23.27;;;13.23;;
29848;SDS011;16728;50.832;5.590;2023-05-23T05:39:59;20.73;;;13.35;;
29848;SDS011;16728;50.832;5.590;2023-05-23T05:43:06;22.38;;;13.27;;
29848;SDS011;16728;50.832;5.590;2023-05-23T05:46:09;18.30;;;13.35;;
29848;SDS011;16728;50.832;5.590;2023-05-23T05:49:11;19.02;;;13.82;;
29848;SDS011;16728;50.832;5.590;2023-05-23T05:52:13;23.98;;;12.82;;
29848;SDS011;16728;50.832;5.590;2023-05-23T05:55:15;18.67;;;12.95;;
29848;SDS011;16728;50.832;5.590;2023-05-23T05:58:22;21.50;;;13.38;;
29848;SDS011;16728;50.832;5.590;2023-05-23T06:01:23;18.02;;;12.57;;
29848;SDS011;16728;50.832;5.590;2023-05-23T06:04:27;26.38;;;14.52;;
29848;SDS011;16728;50.832;5.590;2023-05-23T06:07:28;20.95;;;14.05;;
29848;SDS011;16728;50.832;5.590;2023-05-23T06:10:32;19.17;;;13.02;;
29848;SDS011;16728;50.832;5.590;2023-05-23T06:13:34;22.98;;;13.50;;
29848;SDS011;16728;50.832;5.590;2023-05-23T06:16:36;20.63;;;12.55;;
29848;SDS011;16728;50.832;5.590;2023-05-23T06:19:38;20.60;;;12.85;;
29848;SDS011;16728;50.832;5.590;2023-05-23T06:22:41;19.05;;;12.90;;
29848;SDS011;16728;50.832;5.590;2023-05-23T06:25:43;22.95;;;13.27;;
29848;SDS011;16728;50.832;5.590;2023-05-23T06:28:45;21.38;;;13.38;;
29848;SDS011;16728;50.832;5.590;2023-05-23T06:31:46;22.13;;;12.75;;
29848;SDS011;16728;50.832;5.590;2023-05-23T06:34:50;19.60;;;12.52;;
29848;SDS011;16728;50.832;5.590;2023-05-23T06:37:52;24.60;;;13.30;;
29848;SDS011;16728;50.832;5.590;2023-05-23T06:40:55;21.27;;;12.73;;
29848;SDS011;16728;50.832;5.590;2023-05-23T06:43:57;18.33;;;12.18;;
29848;SDS011;16728;50.832;5.590;2023-05-23T06:46:59;20.50;;;11.93;;
29848;SDS011;16728;50.832;5.590;2023-05-23T06:50:01;19.65;;;12.45;;
29848;SDS011;16728;50.832;5.590;2023-05-23T06:53:04;18.58;;;13.02;;
29848;SDS011;16728;50.832;5.590;2023-05-23T06:56:06;16.30;;;11.93;;
29848;SDS011;16728;50.832;5.590;2023-05-23T07:02:11;17.35;;;11.80;;
29848;SDS011;16728;50.832;5.590;2023-05-23T07:05:18;16.95;;;11.68;;
29848;SDS011;16728;50.832;5.590;2023-05-23T07:08:20;16.00;;;11.57;;
29848;SDS011;16728;50.832;5.590;2023-05-23T07:11:22;18.08;;;11.90;;
29848;SDS011;16728;50.832;5.590;2023-05-23T07:14:24;21.45;;;16.90;;
29848;SDS011;16728;50.832;5.590;2023-05-23T07:17:27;17.65;;;12.10;;
29848;SDS011;16728;50.832;5.590;2023-05-23T07:23:37;17.08;;;10.90;;
29848;SDS011;16728;50.832;5.590;2023-05-23T07:26:41;18.60;;;10.82;;
29848;SDS011;16728;50.832;5.590;2023-05-23T07:29:43;17.70;;;11.32;;
29848;SDS011;16728;50.832;5.590;2023-05-23T07:32:45;16.75;;;10.68;;
29848;SDS011;16728;50.832;5.590;2023-05-23T07:35:48;25.83;;;11.57;;
29848;SDS011;16728;50.832;5.590;2023-05-23T07:38:51;16.67;;;11.60;;
29848;SDS011;16728;50.832;5.590;2023-05-23T07:41:53;19.35;;;12.23;;
29848;SDS011;16728;50.832;5.590;2023-05-23T07:44:55;22.42;;;13.57;;
29848;SDS011;16728;50.832;5.590;2023-05-23T07:47:58;28.50;;;16.30;;
29848;SDS011;16728;50.832;5.590;2023-05-23T07:51:00;32.00;;;16.40;;
29848;SDS011;16728;50.832;5.590;2023-05-23T07:54:03;38.67;;;16.97;;
29848;SDS011;16728;50.832;5.590;2023-05-23T07:57:05;28.05;;;16.60;;
29848;SDS011;16728;50.832;5.590;2023-05-23T08:00:07;30.52;;;19.52;;
29848;SDS011;16728;50.832;5.590;2023-05-23T08:03:10;30.00;;;15.43;;
29848;SDS011;16728;50.832;5.590;2023-05-23T08:06:12;23.40;;;13.80;;
29848;SDS011;16728;50.832;5.590;2023-05-23T08:09:14;24.83;;;12.50;;
29848;SDS011;16728;50.832;5.590;2023-05-23T08:12:17;24.67;;;13.80;;
29848;SDS011;16728;50.832;5.590;2023-05-23T08:15:19;21.52;;;12.32;;
29848;SDS011;16728;50.832;5.590;2023-05-23T08:18:23;20.10;;;11.95;;
29848;SDS011;16728;50.832;5.590;2023-05-23T08:21:25;24.42;;;11.77;;
29848;SDS011;16728;50.832;5.590;2023-05-23T08:27:31;29.20;;;14.68;;
29848;SDS011;16728;50.832;5.590;2023-05-23T08:30:34;28.05;;;13.25;;
29848;SDS011;16728;50.832;5.590;2023-05-23T08:33:36;25.60;;;12.93;;
29848;SDS011;16728;50.832;5.590;2023-05-23T08:36:40;21.33;;;10.52;;
29848;SDS011;16728;50.832;5.590;2023-05-23T08:42:46;19.50;;;9.38;;
29848;SDS011;16728;50.832;5.590;2023-05-23T08:45:49;18.77;;;9.68;;
29848;SDS011;16728;50.832;5.590;2023-05-23T08:51:55;20.88;;;9.57;;
29848;SDS011;16728;50.832;5.590;2023-05-23T08:55:06;12.00;;;7.22;;
29848;SDS011;16728;50.832;5.590;2023-05-23T09:01:14;13.60;;;6.88;;
29848;SDS011;16728;50.832;5.590;2023-05-23T09:04:20;13.73;;;7.53;;
29848;SDS011;16728;50.832;5.590;2023-05-23T09:07:22;16.90;;;9.70;;
29848;SDS011;16728;50.832;5.590;2023-05-23T09:10:24;14.75;;;7.88;;
29848;SDS011;16728;50.832;5.590;2023-05-23T09:13:30;11.68;;;6.25;;
29848;SDS011;16728;50.832;5.590;2023-05-23T09:16:33;12.32;;;6.57;;
29848;SDS011;16728;50.832;5.590;2023-05-23T09:19:39;11.65;;;6.10;;
29848;SDS011;16728;50.832;5.590;2023-05-23T09:22:46;15.48;;;6.78;;
29848;SDS011;16728;50.832;5.590;2023-05-23T09:25:48;19.20;;;11.07;;
29848;SDS011;16728;50.832;5.590;2023-05-23T09:28:51;19.10;;;10.18;;
29848;SDS011;16728;50.832;5.590;2023-05-23T09:32:09;14.15;;;8.77;;
29848;SDS011;16728;50.832;5.590;2023-05-23T09:35:16;9.60;;;6.50;;
29848;SDS011;16728;50.832;5.590;2023-05-23T09:38:23;10.88;;;6.07;;
29848;SDS011;16728;50.832;5.590;2023-05-23T09:41:28;13.10;;;6.20;;
29848;SDS011;16728;50.832;5.590;2023-05-23T09:44:33;14.43;;;6.57;;
29848;SDS011;16728;50.832;5.590;2023-05-23T09:47:51;14.70;;;6.18;;
29848;SDS011;16728;50.832;5.590;2023-05-23T09:50:55;9.23;;;5.83;;
29848;SDS011;16728;50.832;5.590;2023-05-23T09:53:57;14.80;;;7.22;;
29848;SDS011;16728;50.832;5.590;2023-05-23T09:56:58;17.42;;;7.50;;
29848;SDS011;16728;50.832;5.590;2023-05-23T10:00:03;21.20;;;9.43;;
29848;SDS011;16728;50.832;5.590;2023-05-23T10:03:17;17.45;;;8.27;;
29848;SDS011;16728;50.832;5.590;2023-05-23T10:06:25;12.80;;;6.50;;
29848;SDS011;16728;50.832;5.590;2023-05-23T10:09:35;13.77;;;6.70;;
29848;SDS011;16728;50.832;5.590;2023-05-23T10:12:46;17.42;;;6.25;;
29848;SDS011;16728;50.832;5.590;2023-05-23T10:19:47;9.73;;;5.93;;
29848;SDS011;16728;50.832;5.590;2023-05-23T10:23:03;12.40;;;5.95;;
29848;SDS011;16728;50.832;5.590;2023-05-23T10:26:06;12.57;;;6.50;;
29848;SDS011;16728;50.832;5.590;2023-05-23T10:29:08;11.32;;;6.63;;
29848;SDS011;16728;50.832;5.590;2023-05-23T10:32:10;11.90;;;6.07;;
29848;SDS011;16728;50.832;5.590;2023-05-23T10:35:28;15.07;;;6.35;;
29848;SDS011;16728;50.832;5.590;2023-05-23T10:38:48;14.93;;;7.20;;
29848;SDS011;16728;50.832;5.590;2023-05-23T10:41:54;13.45;;;6.43;;
29848;SDS011;16728;50.832;5.590;2023-05-23T10:45:13;12.93;;;6.10;;
29848;SDS011;16728;50.832;5.590;2023-05-23T10:48:17;11.93;;;5.53;;
29848;SDS011;16728;50.832;5.590;2023-05-23T10:51:37;16.23;;;8.15;;
29848;SDS011;16728;50.832;5.590;2023-05-23T10:54:41;14.82;;;6.38;;
29848;SDS011;16728;50.832;5.590;2023-05-23T10:58:07;13.40;;;7.03;;
29848;SDS011;16728;50.832;5.590;2023-05-23T11:01:23;13.10;;;6.47;;
29848;SDS011;16728;50.832;5.590;2023-05-23T11:04:27;12.85;;;6.25;;
29848;SDS011;16728;50.832;5.590;2023-05-23T11:07:31;14.52;;;6.55;;
29848;SDS011;16728;50.832;5.590;2023-05-23T11:13:54;16.27;;;6.60;;
29848;SDS011;16728;50.832;5.590;2023-05-23T11:17:00;13.13;;;6.10;;
29848;SDS011;16728;50.832;5.590;2023-05-23T11:20:20;13.45;;;7.15;;
29848;SDS011;16728;50.832;5.590;2023-05-23T11:23:24;11.50;;;5.22;;
29848;SDS011;16728;50.832;5.590;2023-05-23T11:26:58;14.13;;;4.63;;
29848;SDS011;16728;50.832;5.590;2023-05-23T11:33:21;12.35;;;5.95;;
29848;SDS011;16728;50.832;5.590;2023-05-23T11:36:23;12.23;;;5.30;;
29848;SDS011;16728;50.832;5.590;2023-05-23T11:39:25;13.50;;;5.65;;
29848;SDS011;16728;50.832;5.590;2023-05-23T11:42:26;10.02;;;4.88;;
29848;SDS011;16728;50.832;5.590;2023-05-23T11:45:29;13.70;;;5.13;;
29848;SDS011;16728;50.832;5.590;2023-05-23T11:48:32;8.35;;;4.50;;
29848;SDS011;16728;50.832;5.590;2023-05-23T11:51:34;11.18;;;4.45;;
29848;SDS011;16728;50.832;5.590;2023-05-23T11:54:36;6.20;;;3.65;;
29848;SDS011;16728;50.832;5.590;2023-05-23T11:57:42;12.45;;;4.65;;
29848;SDS011;16728;50.832;5.590;2023-05-23T12:00:45;8.40;;;4.72;;
29848;SDS011;16728;50.832;5.590;2023-05-23T12:03:47;10.07;;;5.78;;
29848;SDS011;16728;50.832;5.590;2023-05-23T12:06:51;10.60;;;5.00;;
29848;SDS011;16728;50.832;5.590;2023-05-23T12:09:58;10.95;;;5.32;;
29848;SDS011;16728;50.832;5.590;2023-05-23T12:13:00;8.70;;;5.40;;
29848;SDS011;16728;50.832;5.590;2023-05-23T12:16:02;11.43;;;5.00;;
29848;SDS011;16728;50.832;5.590;2023-05-23T12:19:05;8.77;;;3.88;;
29848;SDS011;16728;50.832;5.590;2023-05-23T12:22:07;8.68;;;3.63;;
29848;SDS011;16728;50.832;5.590;2023-05-23T12:25:09;8.50;;;3.75;;
29848;SDS011;16728;50.832;5.590;2023-05-23T12:28:16;13.05;;;3.70;;
29848;SDS011;16728;50.832;5.590;2023-05-23T12:31:21;8.70;;;3.22;;
29848;SDS011;16728;50.832;5.590;2023-05-23T12:34:24;10.07;;;3.08;;
29848;SDS011;16728;50.832;5.590;2023-05-23T12:37:27;10.57;;;2.95;;
29848;SDS011;16728;50.832;5.590;2023-05-23T12:40:30;10.95;;;2.88;;
29848;SDS011;16728;50.832;5.590;2023-05-23T12:43:32;10.27;;;3.30;;
29848;SDS011;16728;50.832;5.590;2023-05-23T12:46:37;10.02;;;3.20;;
29848;SDS011;16728;50.832;5.590;2023-05-23T12:49:39;11.85;;;2.70;;
29848;SDS011;16728;50.832;5.590;2023-05-23T12:52:42;9.63;;;3.00;;
29848;SDS011;16728;50.832;5.590;2023-05-23T12:55:44;12.55;;;3.58;;
29848;SDS011;16728;50.832;5.590;2023-05-23T12:58:47;10.40;;;3.75;;
29848;SDS011;16728;50.832;5.590;2023-05-23T13:01:49;9.40;;;3.20;;
29848;SDS011;16728;50.832;5.590;2023-05-23T13:07:55;11.43;;;3.33;;
29848;SDS011;16728;50.832;5.590;2023-05-23T13:10:59;13.60;;;3.30;;
29848;SDS011;16728;50.832;5.590;2023-05-23T13:14:01;8.90;;;2.92;;
29848;SDS011;16728;50.832;5.590;2023-05-23T13:17:04;12.98;;;3.15;;
29848;SDS011;16728;50.832;5.590;2023-05-23T13:20:06;9.07;;;3.13;;
29848;SDS011;16728;50.832;5.590;2023-05-23T13:23:09;19.23;;;3.35;;
29848;SDS011;16728;50.832;5.590;2023-05-23T13:26:11;13.48;;;3.35;;
29848;SDS011;16728;50.832;5.590;2023-05-23T13:29:14;11.85;;;3.40;;
29848;SDS011;16728;50.832;5.590;2023-05-23T13:32:17;12.70;;;3.95;;
29848;SDS011;16728;50.832;5.590;2023-05-23T13:35:20;11.05;;;3.42;;
29848;SDS011;16728;50.832;5.590;2023-05-23T13:38:24;10.15;;;3.30;;
29848;SDS011;16728;50.832;5.590;2023-05-23T13:41:28;10.45;;;3.05;;
29848;SDS011;16728;50.832;5.590;2023-05-23T13:44:30;13.25;;;3.40;;
29848;SDS011;16728;50.832;5.590;2023-05-23T13:47:33;13.57;;;3.30;;
29848;SDS011;16728;50.832;5.590;2023-05-23T13:50:36;10.77;;;3.03;;
29848;SDS011;16728;50.832;5.590;2023-05-23T13:53:39;25.10;;;9.45;;
29848;SDS011;16728;50.832;5.590;2023-05-23T13:56:41;11.55;;;3.65;;
29848;SDS011;16728;50.832;5.590;2023-05-23T13:59:44;11.98;;;3.45;;
29848;SDS011;16728;50.832;5.590;2023-05-23T14:02:46;20.05;;;6.68;;
29848;SDS011;16728;50.832;5.590;2023-05-23T14:05:48;13.80;;;4.13;;
29848;SDS011;16728;50.832;5.590;2023-05-23T14:08:51;13.40;;;3.67;;
29848;SDS011;16728;50.832;5.590;2023-05-23T14:11:53;14.35;;;3.83;;
29848;SDS011;16728;50.832;5.590;2023-05-23T14:14:55;16.17;;;3.50;;
29848;SDS011;16728;50.832;5.590;2023-05-23T14:17:56;13.20;;;3.40;;
29848;SDS011;16728;50.832;5.590;2023-05-23T14:20:58;9.70;;;4.15;;
29848;SDS011;16728;50.832;5.590;2023-05-23T14:24:01;11.43;;;4.60;;
29848;SDS011;16728;50.832;5.590;2023-05-23T14:27:03;18.70;;;6.53;;
29848;SDS011;16728;50.832;5.590;2023-05-23T14:30:05;15.43;;;5.85;;
29848;SDS011;16728;50.832;5.590;2023-05-23T14:33:09;11.57;;;3.72;;
29848;SDS011;16728;50.832;5.590;2023-05-23T14:36:12;15.68;;;5.20;;
29848;SDS011;16728;50.832;5.590;2023-05-23T14:39:14;14.15;;;5.60;;
29848;SDS011;16728;50.832;5.590;2023-05-23T14:42:23;9.75;;;3.83;;
29848;SDS011;16728;50.832;5.590;2023-05-23T14:45:25;10.23;;;3.40;;
29848;SDS011;16728;50.832;5.590;2023-05-23T14:48:27;12.20;;;3.70;;
29848;SDS011;16728;50.832;5.590;2023-05-23T14:51:29;10.48;;;3.97;;
29848;SDS011;16728;50.832;5.590;2023-05-23T14:54:50;11.55;;;3.33;;
29848;SDS011;16728;50.832;5.590;2023-05-23T14:57:52;13.88;;;3.30;;
29848;SDS011;16728;50.832;5.590;2023-05-23T15:00:55;7.60;;;2.42;;
29848;SDS011;16728;50.832;5.590;2023-05-23T15:03:57;15.03;;;4.17;;
29848;SDS011;16728;50.832;5.590;2023-05-23T15:06:59;26.25;;;11.80;;
29848;SDS011;16728;50.832;5.590;2023-05-23T15:10:01;13.98;;;3.97;;
29848;SDS011;16728;50.832;5.590;2023-05-23T15:13:04;17.08;;;5.80;;
29848;SDS011;16728;50.832;5.590;2023-05-23T15:16:06;30.25;;;8.52;;
29848;SDS011;16728;50.832;5.590;2023-05-23T15:19:09;32.20;;;12.82;;
29848;SDS011;16728;50.832;5.590;2023-05-23T15:22:11;13.45;;;5.50;;
29848;SDS011;16728;50.832;5.590;2023-05-23T15:25:33;16.35;;;6.20;;
29848;SDS011;16728;50.832;5.590;2023-05-23T15:28:49;10.98;;;2.95;;
29848;SDS011;16728;50.832;5.590;2023-05-23T15:31:52;10.05;;;2.72;;
29848;SDS011;16728;50.832;5.590;2023-05-23T15:35:01;14.13;;;6.25;;
29848;SDS011;16728;50.832;5.590;2023-05-23T15:38:03;11.43;;;2.97;;
29848;SDS011;16728;50.832;5.590;2023-05-23T15:41:05;11.40;;;4.35;;
29848;SDS011;16728;50.832;5.590;2023-05-23T15:44:07;11.88;;;3.05;;
29848;SDS011;16728;50.832;5.590;2023-05-23T15:47:10;12.52;;;2.65;;
29848;SDS011;16728;50.832;5.590;2023-05-23T15:50:13;7.25;;;2.22;;
29848;SDS011;16728;50.832;5.590;2023-05-23T15:53:15;14.13;;;2.70;;
29848;SDS011;16728;50.832;5.590;2023-05-23T15:56:17;10.75;;;4.68;;
29848;SDS011;16728;50.832;5.590;2023-05-23T15:59:19;13.82;;;3.95;;
29848;SDS011;16728;50.832;5.590;2023-05-23T16:02:21;14.57;;;7.20;;
29848;SDS011;16728;50.832;5.590;2023-05-23T16:05:23;10.40;;;2.90;;
29848;SDS011;16728;50.832;5.590;2023-05-23T16:08:30;11.00;;;4.10;;
29848;SDS011;16728;50.832;5.590;2023-05-23T16:11:32;8.02;;;2.92;;
29848;SDS011;16728;50.832;5.590;2023-05-23T16:14:34;10.00;;;4.30;;
29848;SDS011;16728;50.832;5.590;2023-05-23T16:17:36;6.55;;;2.83;;
29848;SDS011;16728;50.832;5.590;2023-05-23T16:20:39;11.03;;;2.63;;
29848;SDS011;16728;50.832;5.590;2023-05-23T16:23:41;11.70;;;4.30;;
29848;SDS011;16728;50.832;5.590;2023-05-23T16:26:44;6.45;;;2.35;;
29848;SDS011;16728;50.832;5.590;2023-05-23T16:29:45;13.82;;;3.22;;
29848;SDS011;16728;50.832;5.590;2023-05-23T16:32:49;10.93;;;3.50;;
29848;SDS011;16728;50.832;5.590;2023-05-23T16:35:51;7.40;;;2.33;;
29848;SDS011;16728;50.832;5.590;2023-05-23T16:38:53;13.38;;;4.68;;
29848;SDS011;16728;50.832;5.590;2023-05-23T16:41:56;9.30;;;2.63;;
29848;SDS011;16728;50.832;5.590;2023-05-23T16:45:00;13.10;;;4.78;;
29848;SDS011;16728;50.832;5.590;2023-05-23T16:48:02;10.27;;;3.13;;
29848;SDS011;16728;50.832;5.590;2023-05-23T16:51:06;11.27;;;2.40;;
29848;SDS011;16728;50.832;5.590;2023-05-23T16:54:08;11.50;;;4.43;;
29848;SDS011;16728;50.832;5.590;2023-05-23T16:57:11;11.68;;;3.40;;
29848;SDS011;16728;50.832;5.590;2023-05-23T17:00:13;9.55;;;3.60;;
29848;SDS011;16728;50.832;5.590;2023-05-23T17:03:15;11.57;;;3.58;;
29848;SDS011;16728;50.832;5.590;2023-05-23T17:06:17;13.27;;;3.35;;
29848;SDS011;16728;50.832;5.590;2023-05-23T17:09:21;11.23;;;2.85;;
29848;SDS011;16728;50.832;5.590;2023-05-23T17:12:24;9.32;;;2.58;;
29848;SDS011;16728;50.832;5.590;2023-05-23T17:15:26;6.70;;;2.05;;
29848;SDS011;16728;50.832;5.590;2023-05-23T17:18:28;11.63;;;5.05;;
29848;SDS011;16728;50.832;5.590;2023-05-23T17:21:30;21.00;;;5.05;;
29848;SDS011;16728;50.832;5.590;2023-05-23T17:24:33;13.63;;;4.63;;
29848;SDS011;16728;50.832;5.590;2023-05-23T17:27:35;10.20;;;3.25;;
29848;SDS011;16728;50.832;5.590;2023-05-23T17:30:37;18.55;;;5.95;;
29848;SDS011;16728;50.832;5.590;2023-05-23T17:33:40;14.75;;;4.28;;
29848;SDS011;16728;50.832;5.590;2023-05-23T17:36:42;11.20;;;5.57;;
29848;SDS011;16728;50.832;5.590;2023-05-23T17:39:45;12.85;;;2.85;;
29848;SDS011;16728;50.832;5.590;2023-05-23T17:42:51;15.05;;;6.15;;
29848;SDS011;16728;50.832;5.590;2023-05-23T17:45:53;9.52;;;3.10;;
29848;SDS011;16728;50.832;5.590;2023-05-23T17:48:58;12.98;;;2.95;;
29848;SDS011;16728;50.832;5.590;2023-05-23T17:52:00;16.23;;;3.85;;
29848;SDS011;16728;50.832;5.590;2023-05-23T17:55:05;11.80;;;3.25;;
29848;SDS011;16728;50.832;5.590;2023-05-23T17:58:11;13.35;;;5.43;;
29848;SDS011;16728;50.832;5.590;2023-05-23T18:01:13;10.27;;;4.38;;
29848;SDS011;16728;50.832;5.590;2023-05-23T18:04:15;14.60;;;4.60;;
29848;SDS011;16728;50.832;5.590;2023-05-23T18:07:17;11.10;;;3.22;;
29848;SDS011;16728;50.832;5.590;2023-05-23T18:10:24;8.80;;;2.33;;
29848;SDS011;16728;50.832;5.590;2023-05-23T18:13:26;10.35;;;2.40;;
29848;SDS011;16728;50.832;5.590;2023-05-23T18:16:28;10.98;;;2.63;;
29848;SDS011;16728;50.832;5.590;2023-05-23T18:19:30;11.80;;;3.92;;
29848;SDS011;16728;50.832;5.590;2023-05-23T18:22:32;13.77;;;5.03;;
29848;SDS011;16728;50.832;5.590;2023-05-23T18:25:34;13.65;;;3.38;;
29848;SDS011;16728;50.832;5.590;2023-05-23T18:28:41;11.75;;;2.90;;
29848;SDS011;16728;50.832;5.590;2023-05-23T18:31:50;10.93;;;2.97;;
29848;SDS011;16728;50.832;5.590;2023-05-23T18:34:53;14.13;;;3.95;;
29848;SDS011;16728;50.832;5.590;2023-05-23T18:37:55;13.43;;;3.25;;
29848;SDS011;16728;50.832;5.590;2023-05-23T18:40:58;12.77;;;3.42;;
29848;SDS011;16728;50.832;5.590;2023-05-23T18:44:00;13.23;;;3.00;;
29848;SDS011;16728;50.832;5.590;2023-05-23T18:47:03;16.17;;;5.65;;
29848;SDS011;16728;50.832;5.590;2023-05-23T18:50:05;13.50;;;3.28;;